Time;durP1;ratioP1;P1;durP2;ratioP2;P2;SDS_P1;SDS_P2;PMS_P1;PMS_P2;Temp;Humidity;BMP_temperature;BMP_pressure;BME280_temperature;BME280_humidity;BME280_pressure;Samples;Min_cycle;Max_cycle;Signal;HPM_P1;HPM_P2
2022/12/21 00:02:05;;;;;;;29.63;22.83;;;;;;;;;;4974131;28;20977;-65
2022/12/21 00:04:32;;;;;;;28.10;21.73;;;;;;;;;;4974628;28;20571;-64
2022/12/21 00:07:00;;;;;;;31.90;23.80;;;;;;;;;;4974396;28;20451;-64
2022/12/21 00:09:28;;;;;;;27.30;22.20;;;;;;;;;;4974140;28;20453;-64
2022/12/21 00:11:55;;;;;;;27.83;22.57;;;;;;;;;;4974299;28;20491;-64
2022/12/21 00:14:23;;;;;;;28.90;22.70;;;;;;;;;;4974185;28;20446;-64
2022/12/21 00:16:50;;;;;;;26.90;20.60;;;;;;;;;;4974297;28;20445;-64
2022/12/21 00:19:17;;;;;;;28.30;20.80;;;;;;;;;;4976521;28;20445;-64
2022/12/21 00:21:44;;;;;;;25.10;20.80;;;;;;;;;;4978446;28;20455;-64
2022/12/21 00:24:11;;;;;;;28.27;20.20;;;;;;;;;;4978206;28;20449;-64
2022/12/21 00:26:40;;;;;;;28.20;22.47;;;;;;;;;;4977681;28;20628;-63
2022/12/21 00:29:08;;;;;;;28.13;21.87;;;;;;;;;;4977654;28;20939;-64
2022/12/21 00:31:36;;;;;;;28.83;21.37;;;;;;;;;;4977756;28;20484;-64
2022/12/21 00:34:04;;;;;;;26.33;20.33;;;;;;;;;;4977667;28;20450;-65
2022/12/21 00:36:31;;;;;;;27.00;20.90;;;;;;;;;;4977742;28;20442;-64
2022/12/21 00:38:59;;;;;;;25.87;20.37;;;;;;;;;;4977873;28;20449;-64
2022/12/21 00:41:27;;;;;;;28.43;20.27;;;;;;;;;;4977688;28;20463;-64
2022/12/21 00:43:56;;;;;;;29.33;21.37;;;;;;;;;;4977730;28;20452;-64
2022/12/21 00:46:24;;;;;;;28.43;20.70;;;;;;;;;;4977602;28;20445;-64
2022/12/21 00:48:51;;;;;;;28.00;20.50;;;;;;;;;;4977640;28;20870;-64
2022/12/21 00:51:20;;;;;;;28.07;19.97;;;;;;;;;;4977101;28;20480;-64
2022/12/21 00:53:47;;;;;;;26.03;19.53;;;;;;;;;;4977970;28;20444;-64
2022/12/21 00:56:15;;;;;;;27.30;19.50;;;;;;;;;;4977593;28;20548;-64
2022/12/21 00:58:43;;;;;;;30.80;18.90;;;;;;;;;;4977673;28;20449;-64
2022/12/21 01:01:13;;;;;;;30.73;20.60;;;;;;;;;;4977370;28;20876;-63
2022/12/21 01:03:41;;;;;;;30.77;22.20;;;;;;;;;;4977058;28;20851;-63
2022/12/21 01:06:10;;;;;;;27.30;19.17;;;;;;;;;;4977210;28;20448;-63
2022/12/21 01:08:37;;;;;;;27.90;20.00;;;;;;;;;;4977367;28;20445;-64
2022/12/21 01:11:05;;;;;;;30.50;18.73;;;;;;;;;;4977086;28;20445;-64
2022/12/21 01:13:33;;;;;;;26.47;19.50;;;;;;;;;;4976744;28;20450;-64
2022/12/21 01:16:00;;;;;;;26.27;18.37;;;;;;;;;;4977175;28;20455;-64
2022/12/21 01:18:28;;;;;;;26.93;19.70;;;;;;;;;;4976716;28;20447;-64
2022/12/21 01:20:56;;;;;;;25.53;18.30;;;;;;;;;;4977069;28;20540;-64
2022/12/21 01:23:24;;;;;;;25.50;19.57;;;;;;;;;;4977016;28;20528;-64
2022/12/21 01:25:52;;;;;;;29.07;20.00;;;;;;;;;;4976968;28;20529;-64
2022/12/21 01:28:19;;;;;;;27.80;19.70;;;;;;;;;;4976805;28;20457;-64
2022/12/21 01:30:47;;;;;;;27.30;18.97;;;;;;;;;;4976063;28;20441;-64
2022/12/21 01:33:14;;;;;;;38.40;21.80;;;;;;;;;;4976508;28;20481;-64
2022/12/21 01:35:43;;;;;;;32.70;21.40;;;;;;;;;;4976395;28;20459;-65
2022/12/21 01:38:11;;;;;;;30.97;19.53;;;;;;;;;;4976435;28;20445;-64
2022/12/21 01:40:39;;;;;;;30.20;20.43;;;;;;;;;;4976639;28;20545;-64
2022/12/21 01:43:15;;;;;;;31.47;21.23;;;;;;;;;;4977081;28;20533;-64
2022/12/21 01:45:43;;;;;;;30.70;21.77;;;;;;;;;;4976982;28;20438;-65
2022/12/21 01:48:14;;;;;;;39.23;23.20;;;;;;;;;;4976616;28;20825;-64
2022/12/21 01:50:43;;;;;;;34.77;20.43;;;;;;;;;;4977350;28;20757;-64
2022/12/21 01:53:14;;;;;;;31.70;20.57;;;;;;;;;;4976024;28;20491;-64
2022/12/21 01:55:42;;;;;;;35.07;21.43;;;;;;;;;;4976459;28;20437;-64
2022/12/21 01:58:09;;;;;;;32.00;22.10;;;;;;;;;;4976339;28;20441;-64
2022/12/21 02:00:37;;;;;;;31.63;21.27;;;;;;;;;;4976095;28;20450;-64
2022/12/21 02:03:06;;;;;;;35.90;22.20;;;;;;;;;;4975552;28;20487;-64
2022/12/21 02:05:36;;;;;;;35.00;20.27;;;;;;;;;;4976347;28;20807;-64
2022/12/21 02:08:05;;;;;;;34.13;22.00;;;;;;;;;;4975796;28;20460;-64
2022/12/21 02:10:34;;;;;;;32.80;21.23;;;;;;;;;;4976170;28;20447;-64
2022/12/21 02:13:02;;;;;;;32.30;20.43;;;;;;;;;;4975592;28;20494;-64
2022/12/21 02:15:35;;;;;;;35.47;20.93;;;;;;;;;;4976271;28;20784;-64
2022/12/21 02:18:04;;;;;;;35.37;22.27;;;;;;;;;;4976486;28;20464;-64
2022/12/21 02:20:45;;;;;;;32.03;21.60;;;;;;;;;;4976038;28;20448;-64
2022/12/21 02:23:42;;;;;;;34.57;20.87;;;;;;;;;;4975565;28;20449;-64
2022/12/21 02:26:19;;;;;;;33.10;22.47;;;;;;;;;;4935312;29;20465;-64
2022/12/21 02:29:08;;;;;;;36.00;20.87;;;;;;;;;;4969129;28;20450;-65
2022/12/21 02:31:40;;;;;;;34.90;21.70;;;;;;;;;;4976266;28;20441;-65
2022/12/21 02:34:14;;;;;;;41.17;24.83;;;;;;;;;;4975623;28;20460;-65
2022/12/21 02:36:45;;;;;;;36.63;22.53;;;;;;;;;;4975402;28;20946;-65
2022/12/21 02:39:17;;;;;;;37.27;23.90;;;;;;;;;;4975746;28;20473;-64
2022/12/21 02:41:50;;;;;;;40.70;24.40;;;;;;;;;;4974817;28;20532;-65
2022/12/21 02:44:24;;;;;;;41.57;24.27;;;;;;;;;;4975155;28;20441;-65
2022/12/21 02:46:58;;;;;;;40.50;24.37;;;;;;;;;;4976094;28;20437;-65
2022/12/21 02:49:28;;;;;;;52.50;24.30;;;;;;;;;;4975514;28;20434;-65
2022/12/21 02:52:00;;;;;;;40.23;23.37;;;;;;;;;;4975207;28;20468;-64
2022/12/21 02:54:27;;;;;;;41.00;23.80;;;;;;;;;;4975068;28;20903;-64
2022/12/21 02:56:54;;;;;;;42.50;25.33;;;;;;;;;;4974987;28;20449;-64
2022/12/21 02:59:24;;;;;;;42.53;23.90;;;;;;;;;;4975171;28;20453;-64
2022/12/21 03:02:15;;;;;;;42.33;24.60;;;;;;;;;;4975567;28;20433;-64
2022/12/21 03:05:04;;;;;;;45.57;23.50;;;;;;;;;;4965082;28;20483;-64
2022/12/21 03:07:40;;;;;;;53.73;27.37;;;;;;;;;;4975298;28;20437;-64
2022/12/21 03:10:13;;;;;;;55.67;26.67;;;;;;;;;;4975206;28;20513;-64
2022/12/21 03:12:47;;;;;;;56.10;28.23;;;;;;;;;;4975117;28;20837;-64
2022/12/21 03:15:18;;;;;;;57.30;25.07;;;;;;;;;;4974788;28;20516;-64
2022/12/21 03:17:46;;;;;;;56.17;28.20;;;;;;;;;;4974795;28;20433;-64
2022/12/21 03:20:20;;;;;;;52.10;28.10;;;;;;;;;;4974863;28;20548;-64
2022/12/21 03:22:51;;;;;;;63.93;26.60;;;;;;;;;;4974699;28;20943;-64
2022/12/21 03:25:21;;;;;;;52.37;25.93;;;;;;;;;;4974951;28;20435;-64
2022/12/21 03:27:50;;;;;;;52.40;27.50;;;;;;;;;;4975042;28;20429;-64
2022/12/21 03:30:18;;;;;;;54.07;27.30;;;;;;;;;;4974830;28;20525;-65
2022/12/21 03:32:49;;;;;;;52.30;26.53;;;;;;;;;;4974564;28;20477;-64
2022/12/21 03:35:19;;;;;;;49.50;25.60;;;;;;;;;;4975360;28;20451;-64
2022/12/21 03:37:49;;;;;;;53.70;27.77;;;;;;;;;;4975042;28;20426;-64
2022/12/21 03:40:19;;;;;;;47.03;24.50;;;;;;;;;;4974324;28;20536;-64
2022/12/21 03:42:48;;;;;;;46.67;25.40;;;;;;;;;;4974421;28;20441;-64
2022/12/21 03:45:19;;;;;;;53.20;24.53;;;;;;;;;;4974336;28;20476;-65
2022/12/21 03:47:50;;;;;;;47.57;25.47;;;;;;;;;;4975120;28;20442;-64
2022/12/21 03:50:20;;;;;;;50.10;24.77;;;;;;;;;;4974925;28;20455;-64
2022/12/21 03:52:49;;;;;;;51.17;26.43;;;;;;;;;;4976173;28;20495;-64
2022/12/21 03:55:19;;;;;;;50.13;25.57;;;;;;;;;;4978656;28;20453;-64
2022/12/21 03:57:46;;;;;;;54.07;25.57;;;;;;;;;;4978803;28;20444;-64
2022/12/21 04:00:14;;;;;;;54.37;26.67;;;;;;;;;;4978487;28;20445;-64
2022/12/21 04:02:44;;;;;;;39.70;23.07;;;;;;;;;;4978329;28;20505;-64
2022/12/21 04:05:13;;;;;;;51.20;25.70;;;;;;;;;;4978170;28;20881;-64
2022/12/21 04:07:42;;;;;;;51.47;29.67;;;;;;;;;;4978140;28;21019;-64
2022/12/21 04:10:11;;;;;;;56.60;26.30;;;;;;;;;;4977898;28;20444;-64
2022/12/21 04:12:38;;;;;;;58.03;27.87;;;;;;;;;;4977877;28;20487;-64
2022/12/21 04:15:06;;;;;;;53.87;27.40;;;;;;;;;;4978153;28;20507;-64
2022/12/21 04:17:34;;;;;;;49.73;26.20;;;;;;;;;;4978509;28;20442;-64
2022/12/21 04:20:02;;;;;;;55.77;27.53;;;;;;;;;;4978098;28;20544;-64
2022/12/21 04:28:08;;;;;;;63.80;29.57;;;;;;;;;;4977902;28;20420;-64
2022/12/21 04:30:36;;;;;;;61.50;29.00;;;;;;;;;;4978013;28;20431;-64
2022/12/21 04:33:03;;;;;;;59.53;29.07;;;;;;;;;;4978112;28;20898;-64
2022/12/21 04:35:30;;;;;;;52.13;26.43;;;;;;;;;;4977818;28;20443;-64
2022/12/21 04:37:57;;;;;;;64.93;30.10;;;;;;;;;;4977863;28;20471;-64
2022/12/21 04:40:25;;;;;;;61.10;27.33;;;;;;;;;;4977811;28;20461;-64
2022/12/21 04:42:52;;;;;;;68.80;27.80;;;;;;;;;;4977800;28;20444;-64
2022/12/21 04:45:20;;;;;;;61.67;27.70;;;;;;;;;;4977337;28;20969;-64
2022/12/21 04:47:47;;;;;;;63.57;27.70;;;;;;;;;;4977894;28;20450;-64
2022/12/21 04:50:14;;;;;;;62.70;30.90;;;;;;;;;;4977289;28;20937;-65
2022/12/21 04:52:41;;;;;;;54.97;28.60;;;;;;;;;;4978059;28;20499;-64
2022/12/21 04:55:09;;;;;;;58.90;28.73;;;;;;;;;;4977434;28;20445;-65
2022/12/21 04:57:37;;;;;;;59.77;26.60;;;;;;;;;;4977522;28;20451;-65
2022/12/21 05:00:05;;;;;;;60.23;28.53;;;;;;;;;;4975777;28;20452;-64
2022/12/21 05:02:33;;;;;;;61.70;26.63;;;;;;;;;;4976113;28;20503;-63
2022/12/21 05:05:00;;;;;;;59.63;27.20;;;;;;;;;;4975684;28;20453;-64
2022/12/21 05:07:27;;;;;;;62.67;30.33;;;;;;;;;;4976236;28;20445;-64
2022/12/21 05:09:54;;;;;;;60.77;28.40;;;;;;;;;;4976375;28;20540;-64
2022/12/21 05:12:21;;;;;;;54.23;26.60;;;;;;;;;;4976299;28;20531;-64
2022/12/21 05:14:50;;;;;;;62.13;28.40;;;;;;;;;;4976191;28;20457;-64
2022/12/21 05:17:17;;;;;;;59.17;28.23;;;;;;;;;;4976376;28;20441;-64
2022/12/21 05:19:46;;;;;;;57.53;28.87;;;;;;;;;;4976396;28;20453;-64
2022/12/21 05:22:15;;;;;;;65.40;27.20;;;;;;;;;;4976515;28;20511;-64
2022/12/21 05:24:43;;;;;;;63.33;27.33;;;;;;;;;;4975908;28;20441;-64
2022/12/21 05:27:10;;;;;;;55.17;28.67;;;;;;;;;;4976974;28;20449;-64
2022/12/21 05:29:37;;;;;;;62.90;28.07;;;;;;;;;;4976637;28;20954;-64
2022/12/21 05:32:06;;;;;;;66.97;28.73;;;;;;;;;;4976386;28;20449;-64
2022/12/21 05:34:33;;;;;;;56.47;27.60;;;;;;;;;;4976837;28;20994;-65
2022/12/21 05:37:00;;;;;;;57.07;26.80;;;;;;;;;;4977058;28;20456;-64
2022/12/21 05:39:28;;;;;;;65.77;29.27;;;;;;;;;;4976202;28;20446;-64
2022/12/21 05:41:55;;;;;;;63.20;26.33;;;;;;;;;;4976463;28;20538;-64
2022/12/21 05:44:22;;;;;;;61.73;27.97;;;;;;;;;;4975900;28;20456;-65
2022/12/21 05:46:49;;;;;;;73.70;29.20;;;;;;;;;;4976185;28;20947;-65
2022/12/21 05:49:18;;;;;;;67.33;27.80;;;;;;;;;;4976643;28;20456;-65
2022/12/21 05:51:47;;;;;;;79.97;32.17;;;;;;;;;;4976496;28;20476;-64
2022/12/21 05:54:15;;;;;;;65.20;29.00;;;;;;;;;;4976302;28;20484;-65
2022/12/21 05:56:42;;;;;;;76.53;29.47;;;;;;;;;;4976290;28;20473;-64
2022/12/21 05:59:09;;;;;;;76.30;31.27;;;;;;;;;;4976705;28;20521;-65
2022/12/21 06:01:36;;;;;;;103.90;32.27;;;;;;;;;;4960729;28;20203;-65
2022/12/21 06:04:04;;;;;;;83.57;31.37;;;;;;;;;;4957206;28;20478;-64
2022/12/21 06:06:32;;;;;;;90.63;30.97;;;;;;;;;;4956938;28;20481;-65
2022/12/21 06:09:00;;;;;;;98.53;32.90;;;;;;;;;;4956519;28;20461;-68
2022/12/21 06:11:27;;;;;;;81.73;28.90;;;;;;;;;;4957023;28;20450;-65
2022/12/21 06:13:54;;;;;;;73.47;28.53;;;;;;;;;;4956716;28;20478;-65
2022/12/21 06:16:22;;;;;;;68.87;27.67;;;;;;;;;;4956852;28;20447;-65
2022/12/21 06:18:49;;;;;;;69.43;28.07;;;;;;;;;;4956902;28;20445;-64
2022/12/21 06:21:17;;;;;;;59.83;25.47;;;;;;;;;;4956604;28;20468;-65
2022/12/21 06:23:46;;;;;;;55.73;24.03;;;;;;;;;;4956691;28;20454;-65
2022/12/21 06:26:15;;;;;;;54.77;23.13;;;;;;;;;;4956519;28;20449;-65
2022/12/21 06:28:42;;;;;;;52.53;23.57;;;;;;;;;;4956677;28;20453;-65
2022/12/21 06:31:11;;;;;;;53.37;25.47;;;;;;;;;;4956402;28;20454;-65
2022/12/21 06:33:38;;;;;;;51.90;25.87;;;;;;;;;;4956192;28;20490;-64
2022/12/21 06:36:06;;;;;;;49.30;24.80;;;;;;;;;;4956344;28;20548;-65
2022/12/21 06:38:34;;;;;;;52.23;23.63;;;;;;;;;;4956405;28;20460;-65
2022/12/21 06:41:03;;;;;;;54.63;26.53;;;;;;;;;;4956633;28;20512;-64
2022/12/21 06:43:32;;;;;;;55.03;25.70;;;;;;;;;;4957121;28;20784;-64
2022/12/21 06:45:59;;;;;;;50.90;24.37;;;;;;;;;;4955784;28;20788;-65
2022/12/21 06:48:27;;;;;;;59.30;25.00;;;;;;;;;;4956026;28;20441;-65
2022/12/21 06:50:55;;;;;;;43.37;22.87;;;;;;;;;;4955714;28;20446;-65
2022/12/21 06:53:22;;;;;;;45.03;21.47;;;;;;;;;;4956042;28;20481;-64
2022/12/21 06:55:49;;;;;;;40.65;18.33;;;;;;;;;;4956821;28;20450;-64
2022/12/21 06:58:18;;;;;;;43.60;19.80;;;;;;;;;;4956389;28;20200;-64
2022/12/21 07:00:45;;;;;;;34.25;17.10;;;;;;;;;;4955995;28;20509;-64
2022/12/21 07:03:12;;;;;;;44.83;16.53;;;;;;;;;;4955795;28;20244;-64
2022/12/21 07:05:40;;;;;;;39.03;17.93;;;;;;;;;;4955785;28;20489;-64
2022/12/21 07:08:07;;;;;;;30.40;15.03;;;;;;;;;;4955783;28;20450;-65
2022/12/21 07:10:34;;;;;;;37.00;17.50;;;;;;;;;;4955717;28;20476;-65
2022/12/21 07:13:01;;;;;;;35.55;15.82;;;;;;;;;;4955668;28;20453;-65
2022/12/21 07:15:33;;;;;;;35.27;17.17;;;;;;;;;;4955968;28;20200;-65
2022/12/21 07:18:00;;;;;;;32.10;17.60;;;;;;;;;;4955826;28;20445;-65
2022/12/21 07:20:27;;;;;;;35.43;16.27;;;;;;;;;;4956384;28;20527;-65
2022/12/21 07:22:54;;;;;;;30.20;16.48;;;;;;;;;;4955301;28;20504;-65
2022/12/21 07:25:21;;;;;;;42.17;17.75;;;;;;;;;;4955361;28;20204;-65
2022/12/21 07:27:48;;;;;;;32.67;16.73;;;;;;;;;;4955269;28;20559;-65
2022/12/21 07:30:16;;;;;;;34.88;16.83;;;;;;;;;;4955462;28;20446;-65
2022/12/21 07:32:45;;;;;;;35.35;17.05;;;;;;;;;;4955164;28;20248;-64
2022/12/21 07:35:12;;;;;;;26.00;15.00;;;;;;;;;;4955118;28;20229;-64
2022/12/21 07:37:39;;;;;;;35.05;17.23;;;;;;;;;;4955482;28;20200;-64
2022/12/21 07:40:07;;;;;;;35.40;17.50;;;;;;;;;;4955203;28;20200;-65
2022/12/21 07:42:34;;;;;;;38.10;18.15;;;;;;;;;;4955724;28;20198;-64
2022/12/21 07:45:02;;;;;;;32.78;15.95;;;;;;;;;;4955531;28;20202;-64
2022/12/21 07:47:29;;;;;;;32.20;16.30;;;;;;;;;;4955128;28;20668;-64
2022/12/21 07:49:57;;;;;;;28.27;14.93;;;;;;;;;;4955405;28;20198;-65
2022/12/21 07:52:25;;;;;;;30.57;13.73;;;;;;;;;;4955496;28;20305;-66
2022/12/21 07:54:52;;;;;;;30.23;14.93;;;;;;;;;;4955337;28;20486;-65
2022/12/21 07:57:19;;;;;;;29.00;14.02;;;;;;;;;;4955317;28;20290;-65
2022/12/21 07:59:46;;;;;;;32.33;14.70;;;;;;;;;;4955272;28;20233;-65
2022/12/21 08:02:13;;;;;;;32.60;12.82;;;;;;;;;;4954941;28;20289;-64
2022/12/21 08:04:41;;;;;;;31.30;13.82;;;;;;;;;;4954918;28;20230;-64
2022/12/21 08:07:09;;;;;;;24.38;11.95;;;;;;;;;;4955183;28;20261;-64
2022/12/21 08:09:37;;;;;;;22.57;11.30;;;;;;;;;;4955178;28;20194;-64
2022/12/21 08:12:05;;;;;;;21.73;13.23;;;;;;;;;;4955173;28;20446;-64
2022/12/21 08:14:32;;;;;;;23.33;10.90;;;;;;;;;;4955099;28;20218;-64
2022/12/21 08:16:59;;;;;;;29.05;13.57;;;;;;;;;;4955460;28;20446;-64
2022/12/21 08:19:27;;;;;;;24.20;11.02;;;;;;;;;;4955705;28;20265;-64
2022/12/21 08:21:54;;;;;;;21.17;11.60;;;;;;;;;;4954810;28;20307;-65
2022/12/21 08:24:23;;;;;;;28.03;13.33;;;;;;;;;;4954687;28;20943;-65
2022/12/21 08:26:50;;;;;;;22.10;11.00;;;;;;;;;;4954909;28;20944;-65
2022/12/21 08:29:18;;;;;;;25.73;13.17;;;;;;;;;;4954854;28;20541;-65
2022/12/21 08:31:45;;;;;;;23.80;11.60;;;;;;;;;;4954568;28;20462;-64
2022/12/21 08:34:12;;;;;;;29.80;13.13;;;;;;;;;;4954398;28;20486;-65
2022/12/21 08:36:40;;;;;;;25.77;12.50;;;;;;;;;;4954814;28;20205;-65
2022/12/21 08:39:07;;;;;;;33.23;12.80;;;;;;;;;;4955076;28;20989;-65
2022/12/21 08:41:36;;;;;;;26.23;12.30;;;;;;;;;;4958076;28;20454;-65
2022/12/21 08:44:03;;;;;;;28.13;12.00;;;;;;;;;;4958299;28;20448;-65
2022/12/21 08:46:30;;;;;;;23.35;10.82;;;;;;;;;;4958332;28;20797;-65
2022/12/21 08:48:57;;;;;;;28.30;10.60;;;;;;;;;;4958165;28;20297;-65
2022/12/21 08:51:25;;;;;;;19.00;9.00;;;;;;;;;;4957970;28;20457;-65
2022/12/21 08:53:52;;;;;;;17.60;9.10;;;;;;;;;;4957780;28;20221;-65
2022/12/21 08:56:19;;;;;;;17.77;9.57;;;;;;;;;;4958039;28;20449;-65
2022/12/21 08:58:48;;;;;;;12.73;7.93;;;;;;;;;;4958182;28;20805;-65
2022/12/21 09:01:18;;;;;;;22.77;8.60;;;;;;;;;;4957199;28;20460;-65
2022/12/21 09:03:45;;;;;;;22.90;9.30;;;;;;;;;;4958147;28;20927;-65
2022/12/21 09:06:13;;;;;;;20.47;9.17;;;;;;;;;;4958050;28;20456;-65
2022/12/21 09:08:40;;;;;;;19.83;7.70;;;;;;;;;;4957620;28;20811;-65
2022/12/21 09:11:08;;;;;;;19.17;8.30;;;;;;;;;;4957832;28;20449;-65
2022/12/21 09:13:36;;;;;;;18.10;7.87;;;;;;;;;;4957648;28;20446;-65
2022/12/21 09:16:12;;;;;;;22.83;9.70;;;;;;;;;;4958143;28;20449;-65
2022/12/21 09:18:39;;;;;;;21.50;9.47;;;;;;;;;;4957836;28;20443;-65
2022/12/21 09:21:07;;;;;;;21.45;10.10;;;;;;;;;;4957771;28;20455;-65
2022/12/21 09:23:35;;;;;;;24.27;10.77;;;;;;;;;;4957540;28;20202;-65
2022/12/21 09:26:02;;;;;;;22.90;11.45;;;;;;;;;;4957634;28;20486;-65
2022/12/21 09:28:29;;;;;;;22.87;10.00;;;;;;;;;;4957254;28;20278;-66
2022/12/21 09:30:56;;;;;;;21.65;11.77;;;;;;;;;;4957571;28;20540;-65
2022/12/21 09:33:25;;;;;;;25.43;11.93;;;;;;;;;;4957443;28;20202;-65
2022/12/21 09:35:52;;;;;;;30.95;12.88;;;;;;;;;;4957346;28;20490;-66
2022/12/21 09:38:20;;;;;;;22.00;11.37;;;;;;;;;;4957068;28;20198;-65
2022/12/21 09:40:47;;;;;;;29.40;11.00;;;;;;;;;;4957345;28;20461;-65
2022/12/21 09:43:19;;;;;;;22.23;10.50;;;;;;;;;;4957260;28;20842;-66
2022/12/21 09:45:52;;;;;;;20.63;10.00;;;;;;;;;;4957551;28;20521;-65
2022/12/21 09:48:21;;;;;;;26.97;10.40;;;;;;;;;;4957117;28;20466;-65
2022/12/21 09:50:52;;;;;;;23.03;11.17;;;;;;;;;;4956889;28;20449;-66
2022/12/21 09:53:21;;;;;;;19.53;9.30;;;;;;;;;;4957044;28;20446;-66
2022/12/21 09:55:51;;;;;;;23.17;11.35;;;;;;;;;;4958086;28;20577;-66
2022/12/21 09:58:20;;;;;;;20.50;11.40;;;;;;;;;;4957284;28;20198;-66
2022/12/21 10:00:49;;;;;;;26.30;10.57;;;;;;;;;;4956775;28;20904;-66
2022/12/21 10:03:32;;;;;;;22.35;10.95;;;;;;;;;;4956356;28;20474;-65
2022/12/21 10:06:07;;;;;;;24.50;10.80;;;;;;;;;;4957487;28;20205;-65
2022/12/21 10:08:48;;;;;;;22.80;11.90;;;;;;;;;;4957109;28;20472;-65
2022/12/21 10:11:19;;;;;;;27.95;11.57;;;;;;;;;;4956828;28;20569;-65
2022/12/21 10:13:49;;;;;;;26.57;12.40;;;;;;;;;;4956465;28;20194;-65
2022/12/21 10:16:28;;;;;;;19.53;11.20;;;;;;;;;;4957293;28;20839;-65
2022/12/21 10:19:00;;;;;;;27.17;11.53;;;;;;;;;;4956466;28;20438;-65
2022/12/21 10:21:32;;;;;;;27.67;12.33;;;;;;;;;;4956430;28;20425;-65
2022/12/21 10:24:00;;;;;;;28.63;11.70;;;;;;;;;;4956774;28;20521;-65
2022/12/21 10:26:28;;;;;;;21.98;10.18;;;;;;;;;;4956393;28;20448;-65
2022/12/21 10:28:59;;;;;;;28.23;12.90;;;;;;;;;;4956515;28;20292;-65
2022/12/21 10:31:29;;;;;;;21.83;12.55;;;;;;;;;;4957405;28;20525;-65
2022/12/21 10:33:58;;;;;;;22.97;11.50;;;;;;;;;;4956117;28;20257;-65
2022/12/21 10:36:27;;;;;;;22.53;11.50;;;;;;;;;;4955959;28;20515;-65
2022/12/21 10:38:56;;;;;;;24.67;12.60;;;;;;;;;;4955863;28;20946;-65
2022/12/21 10:41:24;;;;;;;21.83;11.57;;;;;;;;;;4956131;28;20450;-65
2022/12/21 10:43:53;;;;;;;28.17;12.17;;;;;;;;;;4955958;28;21027;-65
2022/12/21 10:46:21;;;;;;;17.10;10.87;;;;;;;;;;4956014;28;20457;-65
2022/12/21 10:48:49;;;;;;;17.30;9.97;;;;;;;;;;4955823;28;20469;-65
2022/12/21 10:51:23;;;;;;;24.00;12.43;;;;;;;;;;4955608;28;20533;-65
2022/12/21 10:54:00;;;;;;;22.33;12.77;;;;;;;;;;4956016;28;20433;-65
2022/12/21 10:56:28;;;;;;;24.40;11.77;;;;;;;;;;4956176;28;20896;-66
2022/12/21 10:58:56;;;;;;;21.03;11.80;;;;;;;;;;4956032;28;20832;-65
2022/12/21 11:01:25;;;;;;;25.00;12.00;;;;;;;;;;4956127;28;20456;-65
2022/12/21 11:04:06;;;;;;;26.33;13.00;;;;;;;;;;4955363;28;20476;-65
2022/12/21 11:06:33;;;;;;;24.40;12.70;;;;;;;;;;4956005;28;20521;-65
2022/12/21 11:09:02;;;;;;;23.07;11.50;;;;;;;;;;4956471;28;20450;-64
2022/12/21 11:11:31;;;;;;;24.47;13.07;;;;;;;;;;4955770;28;20508;-66
2022/12/21 11:13:59;;;;;;;19.90;11.90;;;;;;;;;;4955358;28;20499;-65
2022/12/21 11:16:29;;;;;;;19.40;13.90;;;;;;;;;;4955461;28;20492;-65
2022/12/21 11:18:59;;;;;;;21.63;14.70;;;;;;;;;;4955707;28;20822;-65
2022/12/21 11:21:34;;;;;;;23.80;12.77;;;;;;;;;;4955340;28;20438;-65
2022/12/21 11:24:05;;;;;;;19.20;12.10;;;;;;;;;;4955332;28;20850;-65
2022/12/21 11:26:38;;;;;;;20.80;13.40;;;;;;;;;;4955638;28;20470;-63
2022/12/21 11:29:07;;;;;;;20.00;12.47;;;;;;;;;;4956321;28;20644;-64
2022/12/21 11:31:35;;;;;;;17.33;12.03;;;;;;;;;;4955460;28;20500;-64
2022/12/21 11:34:02;;;;;;;22.13;12.90;;;;;;;;;;4955338;28;20450;-64
2022/12/21 11:36:30;;;;;;;20.60;11.40;;;;;;;;;;4954758;28;21009;-64
2022/12/21 11:38:57;;;;;;;18.97;12.60;;;;;;;;;;4955619;28;20474;-64
2022/12/21 11:41:28;;;;;;;18.60;11.40;;;;;;;;;;4955275;28;20876;-64
2022/12/21 11:43:55;;;;;;;17.93;10.70;;;;;;;;;;4954970;28;20481;-65
2022/12/21 11:46:38;;;;;;;17.07;10.97;;;;;;;;;;4954707;28;20457;-65
2022/12/21 11:49:27;;;;;;;19.87;12.13;;;;;;;;;;4955357;28;20437;-65
2022/12/21 11:52:00;;;;;;;24.10;11.57;;;;;;;;;;4954934;28;20438;-65
2022/12/21 11:54:34;;;;;;;18.23;10.80;;;;;;;;;;4955333;28;20486;-65
2022/12/21 11:57:09;;;;;;;22.67;11.27;;;;;;;;;;4955091;28;20440;-65
2022/12/21 11:59:42;;;;;;;19.27;11.10;;;;;;;;;;4955237;28;20461;-65
2022/12/21 12:02:21;;;;;;;18.00;10.93;;;;;;;;;;4955128;28;20430;-65
2022/12/21 12:04:55;;;;;;;17.50;10.10;;;;;;;;;;4954816;28;20467;-65
2022/12/21 12:07:29;;;;;;;15.53;10.37;;;;;;;;;;4955074;28;20430;-66
2022/12/21 12:10:10;;;;;;;21.70;10.63;;;;;;;;;;4954821;28;20442;-65
2022/12/21 12:12:46;;;;;;;13.50;9.53;;;;;;;;;;4954866;28;20465;-65
2022/12/21 12:15:28;;;;;;;24.07;11.00;;;;;;;;;;4958134;28;20469;-65
2022/12/21 12:18:02;;;;;;;16.37;10.30;;;;;;;;;;4958922;28;20445;-65
2022/12/21 12:20:40;;;;;;;20.90;11.57;;;;;;;;;;4958478;28;20442;-66
2022/12/21 12:23:12;;;;;;;20.23;11.57;;;;;;;;;;4958985;28;20498;-65
2022/12/21 12:25:45;;;;;;;20.43;12.20;;;;;;;;;;4959076;28;20481;-65
2022/12/21 12:28:22;;;;;;;22.67;13.03;;;;;;;;;;4958947;28;20795;-65
2022/12/21 12:31:00;;;;;;;21.13;13.13;;;;;;;;;;4958966;28;20441;-65
2022/12/21 12:33:33;;;;;;;27.83;14.83;;;;;;;;;;4958749;28;20450;-66
2022/12/21 12:36:04;;;;;;;30.03;14.80;;;;;;;;;;4958310;28;21003;-65
2022/12/21 12:38:37;;;;;;;24.93;16.30;;;;;;;;;;4958230;28;20912;-65
2022/12/21 12:41:12;;;;;;;32.87;17.47;;;;;;;;;;4958710;28;20902;-65
2022/12/21 12:43:47;;;;;;;25.20;15.03;;;;;;;;;;4958571;28;20454;-65
2022/12/21 12:46:22;;;;;;;35.73;18.63;;;;;;;;;;4958414;28;20444;-65
2022/12/21 12:48:56;;;;;;;26.63;16.60;;;;;;;;;;4958373;28;20448;-65
2022/12/21 12:51:25;;;;;;;29.87;16.20;;;;;;;;;;4957937;28;20433;-65
2022/12/21 12:53:56;;;;;;;29.73;16.67;;;;;;;;;;4957885;28;20454;-65
2022/12/21 12:56:28;;;;;;;33.60;19.63;;;;;;;;;;4957932;28;20565;-65
2022/12/21 12:59:01;;;;;;;36.40;17.87;;;;;;;;;;4958118;28;20442;-65
2022/12/21 13:01:31;;;;;;;31.80;16.37;;;;;;;;;;4957710;28;20444;-66
2022/12/21 13:04:05;;;;;;;39.10;20.17;;;;;;;;;;4957914;28;20477;-65
2022/12/21 13:06:40;;;;;;;28.73;16.83;;;;;;;;;;4958169;28;20438;-66
2022/12/21 13:09:11;;;;;;;27.20;16.47;;;;;;;;;;4958262;28;20434;-65
2022/12/21 13:11:43;;;;;;;30.27;16.30;;;;;;;;;;4957844;28;20431;-64
2022/12/21 13:14:19;;;;;;;29.80;15.67;;;;;;;;;;4957540;28;20530;-66
2022/12/21 13:16:49;;;;;;;25.43;14.20;;;;;;;;;;4957775;28;20986;-66
2022/12/21 13:19:18;;;;;;;28.07;15.63;;;;;;;;;;4957681;28;20462;-65
2022/12/21 13:21:46;;;;;;;30.13;14.53;;;;;;;;;;4957608;28;20449;-65
2022/12/21 13:24:15;;;;;;;38.47;17.30;;;;;;;;;;4957826;28;20541;-65
2022/12/21 13:26:45;;;;;;;29.20;15.00;;;;;;;;;;4957053;28;20482;-64
2022/12/21 13:29:16;;;;;;;36.47;14.63;;;;;;;;;;4957683;28;20517;-65
2022/12/21 13:31:44;;;;;;;28.87;14.83;;;;;;;;;;4957459;28;20456;-65
2022/12/21 13:34:14;;;;;;;28.80;13.98;;;;;;;;;;4957678;28;20454;-65
2022/12/21 13:36:41;;;;;;;30.37;13.87;;;;;;;;;;4956978;28;20224;-65
2022/12/21 13:39:12;;;;;;;28.97;14.77;;;;;;;;;;4957290;28;20452;-65
2022/12/21 13:41:40;;;;;;;27.10;15.70;;;;;;;;;;4957116;28;20920;-66
2022/12/21 13:44:13;;;;;;;26.60;13.90;;;;;;;;;;4957018;28;20438;-66
2022/12/21 13:46:42;;;;;;;44.47;17.70;;;;;;;;;;4957386;28;20963;-65
2022/12/21 13:49:15;;;;;;;23.00;14.03;;;;;;;;;;4956706;28;20465;-65
2022/12/21 13:51:45;;;;;;;28.90;15.73;;;;;;;;;;4957564;28;20434;-64
2022/12/21 13:54:17;;;;;;;32.57;14.50;;;;;;;;;;4956942;28;20456;-65
2022/12/21 13:56:50;;;;;;;27.00;15.90;;;;;;;;;;4957367;28;20566;-65
2022/12/21 13:59:20;;;;;;;24.20;14.43;;;;;;;;;;4956493;28;20489;-65
2022/12/21 14:01:52;;;;;;;22.90;13.67;;;;;;;;;;4956551;28;20954;-68
2022/12/21 14:04:26;;;;;;;25.65;13.70;;;;;;;;;;4956867;28;20921;-68
2022/12/21 14:07:13;;;;;;;24.50;15.80;;;;;;;;;;4957187;28;20198;-68
2022/12/21 14:09:48;;;;;;;25.90;15.40;;;;;;;;;;4957318;28;20438;-68
2022/12/21 14:12:22;;;;;;;26.63;15.67;;;;;;;;;;4956659;28;20529;-68
2022/12/21 14:14:57;;;;;;;19.63;14.30;;;;;;;;;;4957320;28;20448;-68
2022/12/21 14:17:28;;;;;;;22.30;12.53;;;;;;;;;;4956968;28;20306;-68
2022/12/21 14:19:56;;;;;;;24.25;13.73;;;;;;;;;;4963089;28;20443;-68
2022/12/21 14:22:36;;;;;;;25.83;12.48;;;;;;;;;;4959890;28;20195;-68
2022/12/21 14:25:09;;;;;;;24.75;14.82;;;;;;;;;;4955826;28;20241;-68
2022/12/21 14:27:36;;;;;;;22.40;14.20;;;;;;;;;;4955958;28;20216;-67
2022/12/21 14:30:14;;;;;;;25.05;13.57;;;;;;;;;;4955548;28;20457;-68
2022/12/21 14:32:43;;;;;;;23.58;14.55;;;;;;;;;;4955465;28;20179;-67
2022/12/21 14:35:25;;;;;;;26.67;14.32;;;;;;;;;;4954865;28;20256;-67
2022/12/21 14:38:07;;;;;;;26.00;14.70;;;;;;;;;;4955489;28;20187;-67
2022/12/21 14:40:49;;;;;;;32.30;15.70;;;;;;;;;;4943578;28;20806;-67